createdAt,value
2017-08-20T00:00:24.829Z,6.00
2017-08-20T00:01:24.824Z,9.80
2017-08-20T00:02:24.818Z,9.80
2017-08-20T00:03:24.812Z,6.20
2017-08-20T00:04:24.797Z,7.30
2017-08-20T00:05:24.791Z,8.10
2017-08-20T00:06:24.784Z,6.50
2017-08-20T00:07:24.775Z,5.60
2017-08-20T00:08:24.765Z,6.90
2017-08-20T00:09:24.760Z,8.50
2017-08-20T00:10:24.752Z,10.30
2017-08-20T00:11:24.748Z,4.70
2017-08-20T00:12:24.743Z,7.70
2017-08-20T00:13:24.735Z,5.40
2017-08-20T00:14:24.730Z,7.20
2017-08-20T00:15:24.721Z,9.70
2017-08-20T00:16:24.716Z,9.40
2017-08-20T00:17:24.706Z,8.50
2017-08-20T00:18:24.700Z,9.30
2017-08-20T00:19:24.696Z,8.20
2017-08-20T00:20:24.679Z,9.00
2017-08-20T00:21:24.674Z,7.20
2017-08-20T00:22:24.667Z,7.90
2017-08-20T00:23:24.660Z,7.00
2017-08-20T00:24:24.650Z,9.20
2017-08-20T00:25:24.645Z,8.30
2017-08-20T00:26:24.636Z,6.80
2017-08-20T00:27:24.631Z,6.60
2017-08-20T00:28:24.628Z,5.60
2017-08-20T00:29:24.619Z,7.20
2017-08-20T00:30:24.614Z,8.30
2017-08-20T00:31:24.605Z,6.90
2017-08-20T00:32:24.598Z,7.80
2017-08-20T00:33:24.589Z,7.60
2017-08-20T00:34:24.585Z,6.90
2017-08-20T00:35:24.574Z,6.90
2017-08-20T00:36:24.563Z,6.90
2017-08-20T00:37:24.558Z,6.90
2017-08-20T00:38:24.550Z,6.60
2017-08-20T00:39:24.544Z,7.80
2017-08-20T00:40:24.537Z,7.80
2017-08-20T00:41:24.527Z,10.00
2017-08-20T00:42:24.521Z,8.70
2017-08-20T00:43:24.514Z,7.70
2017-08-20T00:44:24.510Z,7.80
2017-08-20T00:45:24.503Z,6.20
2017-08-20T00:46:24.495Z,5.60
2017-08-20T00:47:24.489Z,7.70
2017-08-20T00:48:24.481Z,9.90
2017-08-20T00:49:24.475Z,10.30
2017-08-20T00:50:24.467Z,9.80
2017-08-20T00:51:24.460Z,8.50
2017-08-20T00:52:24.449Z,9.50
2017-08-20T00:53:24.439Z,9.50
2017-08-20T00:54:24.435Z,8.00
2017-08-20T00:55:24.424Z,5.00
2017-08-20T00:56:24.418Z,6.80
2017-08-20T00:57:24.412Z,9.60
2017-08-20T00:58:24.403Z,7.30
2017-08-20T00:59:24.398Z,11.80
2017-08-20T01:00:24.394Z,9.00
2017-08-20T01:01:24.385Z,10.20
2017-08-20T01:02:24.380Z,7.30
2017-08-20T01:03:24.371Z,9.80
2017-08-20T01:04:24.365Z,8.30
2017-08-20T01:05:24.356Z,6.40
2017-08-20T01:06:24.351Z,7.40
2017-08-20T01:07:24.341Z,9.00
2017-08-20T01:08:24.328Z,9.70
2017-08-20T01:09:24.323Z,10.60
2017-08-20T01:10:24.314Z,10.90
2017-08-20T01:11:24.309Z,7.50
2017-08-20T01:12:24.300Z,7.30
2017-08-20T01:13:24.292Z,6.60
2017-08-20T01:14:24.287Z,8.60
2017-08-20T01:15:24.278Z,10.40
2017-08-20T01:16:24.273Z,9.70
2017-08-20T01:17:24.269Z,10.10
2017-08-20T01:18:24.259Z,9.60
2017-08-20T01:19:24.254Z,8.20
2017-08-20T01:20:24.244Z,9.10
2017-08-20T01:21:24.239Z,11.50
2017-08-20T01:22:24.228Z,9.90
2017-08-20T01:23:24.225Z,9.60
2017-08-20T01:24:24.211Z,11.40
2017-08-20T01:25:24.208Z,6.70
2017-08-20T01:26:24.204Z,8.60
2017-08-20T01:27:24.188Z,8.60
2017-08-20T01:28:24.184Z,9.60
2017-08-20T01:29:24.179Z,9.30
2017-08-20T01:30:24.172Z,11.00
2017-08-20T01:31:24.165Z,10.70
2017-08-20T01:32:24.153Z,12.80
2017-08-20T01:33:24.144Z,7.80
2017-08-20T01:34:24.144Z,9.80
2017-08-20T01:35:24.130Z,11.30
2017-08-20T01:36:24.124Z,9.60
2017-08-20T01:37:24.115Z,14.40
2017-08-20T01:38:24.109Z,8.20
2017-08-20T01:39:24.100Z,10.30
2017-08-20T01:40:24.097Z,8.00
2017-08-20T01:41:24.091Z,12.20
2017-08-20T01:42:24.083Z,8.90
2017-08-20T01:43:24.076Z,9.60
2017-08-20T01:44:24.069Z,9.70
2017-08-20T01:45:24.059Z,10.30
2017-08-20T01:46:24.055Z,10.80
2017-08-20T01:47:24.046Z,8.70
2017-08-20T01:48:24.035Z,8.30
2017-08-20T01:49:24.028Z,7.60
2017-08-20T01:50:24.021Z,12.10
2017-08-20T01:51:24.014Z,10.40
2017-08-20T01:52:24.005Z,9.20
2017-08-20T01:53:23.999Z,8.80
2017-08-20T01:54:23.991Z,11.40
2017-08-20T01:55:23.986Z,9.80
2017-08-20T01:56:23.983Z,12.60
2017-08-20T01:57:23.972Z,11.10
2017-08-20T01:58:23.969Z,11.90
2017-08-20T01:59:23.958Z,11.90
2017-08-20T02:00:23.952Z,9.00
2017-08-20T02:01:23.946Z,10.40
2017-08-20T02:02:23.937Z,12.40
2017-08-20T02:03:23.932Z,11.90
2017-08-20T02:04:23.921Z,11.10
2017-08-20T02:05:23.912Z,10.30
2017-08-20T02:06:23.906Z,9.60
2017-08-20T02:07:23.897Z,8.50
2017-08-20T02:08:23.892Z,9.80
2017-08-20T02:09:23.882Z,9.00
2017-08-20T02:10:23.878Z,11.30
2017-08-20T02:11:23.869Z,7.90
2017-08-20T02:12:23.866Z,9.30
2017-08-20T02:13:23.868Z,7.80
2017-08-20T02:14:23.851Z,9.60
2017-08-20T02:15:23.846Z,7.00
2017-08-20T02:16:23.839Z,12.20
2017-08-20T02:17:23.829Z,12.90
2017-08-20T02:18:23.826Z,9.20
2017-08-20T02:19:23.813Z,10.90
2017-08-20T02:20:23.803Z,12.90
2017-08-20T02:21:23.799Z,9.50
2017-08-20T02:22:23.787Z,12.90
2017-08-20T02:23:23.783Z,11.30
2017-08-20T02:24:23.773Z,8.70
2017-08-20T02:25:23.768Z,9.20
2017-08-20T02:26:23.759Z,10.80
2017-08-20T02:27:23.753Z,12.70
2017-08-20T02:28:23.750Z,14.40
2017-08-20T02:29:23.740Z,16.70
2017-08-20T02:30:23.735Z,10.70
2017-08-20T02:31:23.726Z,13.10
2017-08-20T02:32:23.714Z,13.00
2017-08-20T02:33:23.708Z,13.70
2017-08-20T02:34:23.699Z,13.20
2017-08-20T02:35:23.693Z,13.80
2017-08-20T02:36:23.690Z,12.30
2017-08-20T02:37:23.680Z,13.00
2017-08-20T02:38:23.674Z,13.40
2017-08-20T02:39:23.664Z,13.20
2017-08-20T02:40:23.659Z,13.60
2017-08-20T02:41:23.649Z,12.10
2017-08-20T02:42:23.644Z,12.50
2017-08-20T02:43:23.632Z,9.90
2017-08-20T02:44:23.622Z,15.10
2017-08-20T02:45:23.616Z,9.70
2017-08-20T02:46:23.613Z,12.90
2017-08-20T02:47:23.601Z,12.20
2017-08-20T02:48:23.596Z,11.50
2017-08-20T02:49:23.583Z,14.20
2017-08-20T02:50:23.577Z,11.00
2017-08-20T02:51:23.568Z,15.50
2017-08-20T02:52:23.564Z,11.40
2017-08-20T02:53:23.557Z,9.80
2017-08-20T02:54:23.550Z,15.00
2017-08-20T02:55:23.542Z,12.60
2017-08-20T02:56:23.530Z,11.90
2017-08-20T02:57:23.526Z,13.80
2017-08-20T02:58:23.516Z,17.10
2017-08-20T02:59:23.509Z,11.50
2017-08-20T03:00:23.497Z,11.90
2017-08-20T03:01:23.489Z,12.00
2017-08-20T03:02:23.483Z,15.80
2017-08-20T03:03:23.473Z,12.50
2017-08-20T03:04:23.464Z,10.50
2017-08-20T03:05:23.464Z,15.10
2017-08-20T03:06:23.448Z,12.80
2017-08-20T03:07:23.444Z,14.30
2017-08-20T03:08:23.439Z,16.30
2017-08-20T03:09:23.437Z,11.50
2017-08-20T03:10:23.424Z,15.30
2017-08-20T03:11:23.414Z,14.50
2017-08-20T03:12:23.407Z,14.80
2017-08-20T03:13:23.398Z,13.70
2017-08-20T03:14:23.392Z,10.80
2017-08-20T03:15:23.385Z,14.00
2017-08-20T03:16:23.371Z,12.00
2017-08-20T03:17:23.364Z,15.50
2017-08-20T03:18:23.355Z,13.30
2017-08-20T03:19:23.348Z,13.10
2017-08-20T03:20:23.340Z,12.40
2017-08-20T03:21:23.329Z,12.10
2017-08-20T03:22:23.324Z,15.10
2017-08-20T03:23:23.315Z,12.60
2017-08-20T03:24:23.311Z,11.40
2017-08-20T03:25:23.307Z,14.90
2017-08-20T03:26:23.296Z,11.40
2017-08-20T03:27:23.289Z,12.10
2017-08-20T03:28:23.279Z,10.90
2017-08-20T03:29:23.273Z,16.80
2017-08-20T03:30:23.265Z,16.60
2017-08-20T03:31:23.271Z,13.70
2017-08-20T03:32:23.243Z,12.20
2017-08-20T03:33:23.235Z,14.30
2017-08-20T03:34:23.228Z,15.30
2017-08-20T03:35:23.221Z,13.60
2017-08-20T03:36:23.214Z,14.50
2017-08-20T03:37:23.210Z,13.10
2017-08-20T03:38:23.199Z,17.40
2017-08-20T03:39:23.193Z,17.00
2017-08-20T03:40:23.180Z,12.50
2017-08-20T03:41:23.171Z,14.90
2017-08-20T03:42:23.165Z,11.60
2017-08-20T03:43:23.155Z,18.40
2017-08-20T03:44:23.148Z,12.30
2017-08-20T03:45:23.137Z,14.40
2017-08-20T03:46:23.133Z,13.20
2017-08-20T03:47:23.123Z,17.80
2017-08-20T03:48:23.126Z,13.10
2017-08-20T03:49:23.112Z,15.30
2017-08-20T03:50:23.107Z,13.20
2017-08-20T03:51:23.096Z,13.80
2017-08-20T03:52:23.087Z,14.30
2017-08-20T03:53:23.078Z,14.10
2017-08-20T03:54:23.071Z,10.30
2017-08-20T03:55:23.066Z,12.50
2017-08-20T03:56:23.049Z,16.10
2017-08-20T03:57:23.042Z,11.30
2017-08-20T03:58:23.033Z,13.90
2017-08-20T03:59:23.023Z,17.20
2017-08-20T04:00:23.015Z,12.80
2017-08-20T04:01:23.009Z,13.10
2017-08-20T04:02:22.998Z,16.00
2017-08-20T04:03:22.992Z,15.10
2017-08-20T04:04:22.988Z,12.40
2017-08-20T04:05:22.977Z,15.30
2017-08-20T04:06:22.972Z,14.60
2017-08-20T04:07:22.962Z,14.30
2017-08-20T04:08:22.953Z,17.40
2017-08-20T04:09:22.947Z,13.60
2017-08-20T04:10:22.936Z,14.30
2017-08-20T04:11:22.931Z,11.20
2017-08-20T04:12:22.918Z,13.70
2017-08-20T04:13:22.908Z,16.80
2017-08-20T04:14:22.900Z,16.30
2017-08-20T04:15:22.891Z,18.70
2017-08-20T04:16:22.883Z,15.30
2017-08-20T04:17:22.874Z,13.10
2017-08-20T04:18:22.867Z,13.70
2017-08-20T04:19:22.858Z,15.10
2017-08-20T04:20:22.854Z,19.00
2017-08-20T04:21:22.847Z,13.60
2017-08-20T04:22:22.837Z,10.60
2017-08-20T04:23:22.831Z,19.20
2017-08-20T04:24:22.827Z,13.50
2017-08-20T04:25:22.812Z,10.50
2017-08-20T04:26:22.805Z,13.20
2017-08-20T04:27:22.797Z,14.10
2017-08-20T04:28:22.783Z,13.80
2017-08-20T04:29:22.777Z,16.20
2017-08-20T04:30:22.766Z,15.50
2017-08-20T04:31:22.759Z,11.50
2017-08-20T04:32:22.750Z,15.60
2017-08-20T04:33:22.742Z,16.80
2017-08-20T04:34:22.736Z,14.10
2017-08-20T04:35:22.727Z,15.40
2017-08-20T04:36:22.722Z,15.30
2017-08-20T04:37:22.711Z,18.90
2017-08-20T04:38:22.707Z,14.00
2017-08-20T04:39:22.696Z,18.80
2017-08-20T04:40:22.684Z,21.30
2017-08-20T04:41:22.675Z,20.10
2017-08-20T04:42:22.670Z,14.40
2017-08-20T04:43:22.658Z,16.80
2017-08-20T04:44:22.654Z,18.90
2017-08-20T04:45:22.649Z,19.20
2017-08-20T04:46:22.641Z,16.70
2017-08-20T04:47:22.633Z,13.30
2017-08-20T04:48:22.621Z,13.90
2017-08-20T04:49:22.615Z,18.10
2017-08-20T04:50:22.605Z,18.40
2017-08-20T04:51:22.598Z,15.10
2017-08-20T04:52:22.585Z,18.60
2017-08-20T04:53:22.575Z,16.20
2017-08-20T04:54:22.570Z,15.30
2017-08-20T04:55:22.563Z,16.30
2017-08-20T04:56:22.551Z,16.70
2017-08-20T04:57:22.545Z,16.20
2017-08-20T04:58:22.535Z,19.20
2017-08-20T04:59:22.527Z,22.20
2017-08-20T05:00:22.523Z,14.20
2017-08-20T05:01:22.514Z,17.70
2017-08-20T05:02:22.509Z,18.80
2017-08-20T05:03:22.498Z,18.70
2017-08-20T05:04:22.492Z,18.20
2017-08-20T05:05:22.482Z,16.70
2017-08-20T05:06:22.476Z,15.20
2017-08-20T05:07:22.466Z,13.60
2017-08-20T05:08:22.455Z,18.20
2017-08-20T05:09:22.447Z,18.20
2017-08-20T05:10:22.438Z,17.10
2017-08-20T05:11:22.431Z,15.40
2017-08-20T05:12:22.423Z,20.20
2017-08-20T05:13:22.413Z,18.60
2017-08-20T05:14:22.408Z,18.90
2017-08-20T05:15:22.397Z,20.30
2017-08-20T05:16:22.394Z,17.70
2017-08-20T05:17:22.388Z,19.80
2017-08-20T05:18:22.379Z,19.80
2017-08-20T05:19:22.373Z,17.40
2017-08-20T05:20:22.367Z,13.70
2017-08-20T05:21:22.358Z,18.70
2017-08-20T05:22:22.347Z,18.20
2017-08-20T05:23:22.343Z,18.90
2017-08-20T05:24:22.330Z,14.70
2017-08-20T05:25:22.321Z,15.60
2017-08-20T05:26:22.314Z,15.20
2017-08-20T05:27:22.304Z,15.20
2017-08-20T05:28:22.297Z,18.10
2017-08-20T05:29:22.290Z,17.60
2017-08-20T05:30:22.282Z,20.40
2017-08-20T05:31:22.276Z,15.60
2017-08-20T05:32:22.272Z,17.80
2017-08-20T05:33:22.263Z,17.30
2017-08-20T05:34:22.256Z,17.80
2017-08-20T05:35:22.248Z,15.40
2017-08-20T05:36:22.242Z,20.00
2017-08-20T05:37:22.231Z,16.80
2017-08-20T05:38:22.233Z,19.90
2017-08-20T05:39:22.220Z,18.80
2017-08-20T05:40:22.203Z,19.00
2017-08-20T05:41:22.200Z,22.00
2017-08-20T05:42:22.190Z,20.80
2017-08-20T05:43:22.185Z,21.60
2017-08-20T05:44:22.180Z,18.40
2017-08-20T05:45:22.171Z,20.80
2017-08-20T05:46:22.166Z,21.30
2017-08-20T05:47:22.156Z,22.80
2017-08-20T05:48:22.145Z,17.70
2017-08-20T05:49:22.139Z,18.10
2017-08-20T05:50:22.130Z,20.20
2017-08-20T05:51:22.124Z,22.10
2017-08-20T05:52:22.115Z,14.00
2017-08-20T05:53:22.110Z,19.30
2017-08-20T05:54:22.101Z,22.50
2017-08-20T05:55:22.095Z,17.20
2017-08-20T05:56:22.092Z,16.90
2017-08-20T05:57:22.083Z,17.90
2017-08-20T05:58:22.078Z,18.10
2017-08-20T05:59:22.068Z,16.40
2017-08-20T06:00:22.061Z,21.20
2017-08-20T06:01:22.056Z,17.50
2017-08-20T06:02:22.052Z,19.10
2017-08-20T06:03:22.043Z,19.20
2017-08-20T06:04:22.029Z,20.90
2017-08-20T06:05:22.024Z,18.20
2017-08-20T06:06:22.016Z,16.10
2017-08-20T06:07:22.007Z,19.50
2017-08-20T06:08:22.002Z,21.60
2017-08-20T06:09:21.994Z,23.00
2017-08-20T06:10:21.993Z,20.90
2017-08-20T06:11:21.980Z,17.60
2017-08-20T06:12:21.976Z,16.10
2017-08-20T06:13:21.972Z,21.50
2017-08-20T06:14:21.964Z,16.30
2017-08-20T06:15:21.960Z,20.10
2017-08-20T06:16:21.952Z,18.20
2017-08-20T06:17:21.942Z,17.20
2017-08-20T06:18:21.939Z,19.30
2017-08-20T06:19:21.930Z,19.60
2017-08-20T06:20:21.916Z,19.30
2017-08-20T06:21:21.914Z,18.00
2017-08-20T06:22:21.905Z,18.50
2017-08-20T06:23:21.899Z,22.90
2017-08-20T06:24:21.889Z,18.30
2017-08-20T06:25:21.885Z,17.70
2017-08-20T06:26:21.876Z,22.70
2017-08-20T06:27:21.872Z,19.40
2017-08-20T06:28:21.867Z,17.50
2017-08-20T06:29:21.860Z,14.90
2017-08-20T06:30:21.854Z,18.50
2017-08-20T06:31:21.846Z,18.30
2017-08-20T06:32:21.838Z,13.30
2017-08-20T06:33:21.834Z,18.50
2017-08-20T06:34:21.825Z,17.30
2017-08-20T06:35:21.821Z,19.20
2017-08-20T06:36:21.810Z,16.80
2017-08-20T06:37:21.801Z,19.30
2017-08-20T06:38:21.795Z,15.50
2017-08-20T06:39:21.788Z,22.20
2017-08-20T06:40:21.783Z,14.90
2017-08-20T06:41:21.774Z,17.60
2017-08-20T06:42:21.767Z,18.00
2017-08-20T06:43:21.761Z,15.10
2017-08-20T06:44:21.758Z,17.70
2017-08-20T06:45:21.753Z,15.90
2017-08-20T06:46:21.747Z,15.60
2017-08-20T06:47:21.742Z,19.20
2017-08-20T06:48:21.730Z,16.00
2017-08-20T06:49:21.722Z,14.90
2017-08-20T06:50:21.717Z,16.30
2017-08-20T06:51:21.711Z,15.70
2017-08-20T06:52:21.708Z,19.30
2017-08-20T06:53:21.705Z,15.10
2017-08-20T06:54:21.698Z,15.50
2017-08-20T06:55:21.695Z,16.90
2017-08-20T06:56:21.689Z,14.60
2017-08-20T06:57:21.686Z,15.00
2017-08-20T06:58:21.679Z,17.30
2017-08-20T06:59:21.678Z,16.30
2017-08-20T07:00:21.669Z,18.00
2017-08-20T07:01:21.663Z,15.00
2017-08-20T07:02:21.663Z,17.40
2017-08-20T07:03:21.656Z,16.00
2017-08-20T07:04:21.651Z,18.00
2017-08-20T07:05:21.653Z,15.00
2017-08-20T07:06:21.644Z,16.40
2017-08-20T07:07:21.646Z,18.40
2017-08-20T07:08:21.642Z,14.60
2017-08-20T07:09:21.639Z,16.00
2017-08-20T07:10:21.635Z,17.40
2017-08-20T07:11:21.628Z,15.10
2017-08-20T07:12:21.626Z,14.50
2017-08-20T07:13:21.635Z,16.20
2017-08-20T07:14:21.618Z,14.50
2017-08-20T07:15:21.613Z,13.80
2017-08-20T07:16:21.604Z,15.30
2017-08-20T07:17:21.603Z,19.00
2017-08-20T07:18:21.597Z,16.50
2017-08-20T07:19:21.596Z,13.70
2017-08-20T07:20:21.591Z,16.10
2017-08-20T07:21:21.587Z,18.70
2017-08-20T07:22:21.585Z,12.20
2017-08-20T07:23:21.580Z,15.80
2017-08-20T07:24:21.579Z,16.30
2017-08-20T07:25:21.579Z,18.70
2017-08-20T07:26:21.573Z,14.50
2017-08-20T07:27:21.572Z,16.60
2017-08-20T07:28:21.566Z,14.40
2017-08-20T07:29:21.567Z,19.20
2017-08-20T07:30:21.561Z,17.50
2017-08-20T07:31:21.561Z,14.50
2017-08-20T07:32:21.553Z,13.90
2017-08-20T07:33:21.549Z,17.40
2017-08-20T07:34:21.549Z,15.70
2017-08-20T07:35:21.544Z,16.80
2017-08-20T07:36:21.542Z,16.90
2017-08-20T07:37:21.540Z,15.70
2017-08-20T07:38:21.537Z,12.40
2017-08-20T07:39:21.537Z,15.90
2017-08-20T07:40:21.538Z,13.40
2017-08-20T07:41:21.534Z,16.20
2017-08-20T07:42:21.534Z,17.00
2017-08-20T07:43:21.531Z,15.30
2017-08-20T07:44:21.530Z,13.90
2017-08-20T07:45:21.527Z,16.20
2017-08-20T07:46:21.529Z,13.90
2017-08-20T07:47:21.526Z,12.90
2017-08-20T07:48:21.519Z,15.30
2017-08-20T07:49:21.521Z,18.10
2017-08-20T07:50:21.517Z,14.30
2017-08-20T07:51:21.519Z,15.60
2017-08-20T07:52:21.541Z,15.90
2017-08-20T07:53:21.520Z,11.50
2017-08-20T07:54:21.522Z,13.10
2017-08-20T07:55:21.520Z,17.30
2017-08-20T07:56:21.514Z,27.30
2017-08-20T07:57:21.520Z,15.40
2017-08-20T07:58:21.516Z,10.30
2017-08-20T07:59:21.520Z,11.20
2017-08-20T08:00:21.518Z,10.40
2017-08-20T08:01:21.522Z,10.80
2017-08-20T08:02:21.523Z,10.00
2017-08-20T08:03:21.528Z,11.80
2017-08-20T08:04:21.534Z,13.80
2017-08-20T08:05:21.535Z,13.10
2017-08-20T08:06:21.539Z,11.00
2017-08-20T08:07:21.542Z,12.30
2017-08-20T08:08:21.543Z,13.00
2017-08-20T08:09:21.548Z,10.40
2017-08-20T08:10:21.548Z,13.50
2017-08-20T08:11:21.554Z,12.20
2017-08-20T08:12:21.552Z,11.70
2017-08-20T08:13:21.553Z,14.50
2017-08-20T08:14:21.557Z,11.70
2017-08-20T08:15:21.560Z,13.20
2017-08-20T08:16:21.563Z,12.70
2017-08-20T08:17:21.569Z,12.20
2017-08-20T08:18:21.569Z,11.40
2017-08-20T08:19:21.571Z,11.30
2017-08-20T08:20:21.577Z,13.00
2017-08-20T08:21:21.580Z,13.30
2017-08-20T08:22:21.582Z,15.30
2017-08-20T08:23:21.587Z,11.90
2017-08-20T08:24:21.587Z,13.80
2017-08-20T08:25:21.589Z,14.30
2017-08-20T08:26:21.593Z,12.80
2017-08-20T08:27:21.599Z,11.70
2017-08-20T08:28:21.590Z,10.60
2017-08-20T08:29:21.595Z,13.40
2017-08-20T08:30:21.596Z,14.00
2017-08-20T08:31:21.600Z,12.90
2017-08-20T08:32:21.598Z,14.60
2017-08-20T08:33:21.603Z,12.30
2017-08-20T08:34:21.602Z,10.90
2017-08-20T08:35:21.608Z,12.10
2017-08-20T08:36:21.613Z,13.20
2017-08-20T08:37:21.613Z,12.30
2017-08-20T08:38:21.617Z,11.10
2017-08-20T08:39:21.618Z,10.60
2017-08-20T08:40:21.618Z,11.80
2017-08-20T08:41:21.624Z,10.70
2017-08-20T08:42:21.622Z,12.20
2017-08-20T08:43:21.627Z,15.00
2017-08-20T08:44:21.624Z,13.30
2017-08-20T08:45:21.625Z,12.00
2017-08-20T08:46:21.631Z,11.00
2017-08-20T08:47:21.630Z,11.70
2017-08-20T08:48:21.634Z,10.70
2017-08-20T08:49:21.634Z,13.10
2017-08-20T08:50:21.640Z,12.60
2017-08-20T08:51:21.641Z,11.00
2017-08-20T08:52:21.647Z,10.50
2017-08-20T08:53:21.652Z,10.80
2017-08-20T08:54:21.653Z,8.90
2017-08-20T08:55:21.659Z,9.50
2017-08-20T08:56:21.659Z,10.10
2017-08-20T08:57:21.669Z,9.70
2017-08-20T08:58:21.668Z,9.80
2017-08-20T08:59:21.673Z,8.50
2017-08-20T09:00:21.673Z,9.20
2017-08-20T09:01:21.676Z,10.70
2017-08-20T09:02:21.681Z,9.10
2017-08-20T09:03:21.685Z,9.50
2017-08-20T09:04:21.691Z,8.70
2017-08-20T09:05:21.692Z,9.20
2017-08-20T09:06:21.700Z,9.70
2017-08-20T09:07:21.703Z,9.20
2017-08-20T09:08:21.711Z,8.10
2017-08-20T09:09:21.720Z,7.60
2017-08-20T09:10:21.722Z,7.80
2017-08-20T09:11:21.730Z,7.20
2017-08-20T09:12:21.736Z,7.10
2017-08-20T09:13:21.753Z,7.90
2017-08-20T09:14:21.757Z,6.10
2017-08-20T09:15:21.993Z,7.60
2017-08-20T09:16:22.118Z,5.30
2017-08-20T09:17:21.813Z,4.90
2017-08-20T09:18:21.803Z,4.70
2017-08-20T09:19:21.784Z,5.00
2017-08-20T09:20:21.792Z,3.70
2017-08-20T09:21:21.803Z,4.40
2017-08-20T09:22:21.811Z,3.60
2017-08-20T09:23:21.824Z,4.30
2017-08-20T09:24:21.839Z,4.80
2017-08-20T09:25:21.848Z,4.30
2017-08-20T09:26:21.861Z,4.20
2017-08-20T09:27:21.873Z,4.60
2017-08-20T09:28:21.881Z,4.10
2017-08-20T09:29:21.893Z,3.80
2017-08-20T09:30:21.903Z,4.20
2017-08-20T09:31:21.917Z,5.00
2017-08-20T09:32:21.924Z,4.40
2017-08-20T09:33:21.934Z,4.70
2017-08-20T09:34:21.948Z,4.80
2017-08-20T09:35:21.957Z,3.60
2017-08-20T09:36:21.969Z,4.60
2017-08-20T09:37:21.983Z,4.20
2017-08-20T09:38:21.994Z,4.30
2017-08-20T09:39:22.005Z,4.90
2017-08-20T09:40:22.020Z,4.40
2017-08-20T09:41:22.034Z,4.40
2017-08-20T09:42:22.044Z,4.80
2017-08-20T09:43:22.060Z,4.90
2017-08-20T09:44:22.070Z,4.40
2017-08-20T09:45:22.081Z,5.60
2017-08-20T09:46:22.095Z,4.50
2017-08-20T09:47:22.107Z,5.30
2017-08-20T09:48:22.111Z,4.80
2017-08-20T09:49:22.125Z,5.20
2017-08-20T09:50:22.137Z,5.00
2017-08-20T09:51:22.150Z,5.50
2017-08-20T09:52:22.160Z,5.60
2017-08-20T09:53:22.173Z,5.60
2017-08-20T09:54:22.184Z,5.80
2017-08-20T09:55:22.197Z,6.30
2017-08-20T09:56:22.211Z,6.20
2017-08-20T09:57:22.221Z,6.50
2017-08-20T09:58:22.234Z,6.40
2017-08-20T09:59:22.253Z,6.30
2017-08-20T10:00:22.250Z,5.50
2017-08-20T10:01:22.263Z,5.20
2017-08-20T10:02:22.270Z,5.90
2017-08-20T10:03:22.285Z,6.00
2017-08-20T10:04:22.298Z,5.40
2017-08-20T10:05:22.306Z,6.40
2017-08-20T10:06:22.318Z,6.00
2017-08-20T10:07:22.328Z,7.80
2017-08-20T10:08:22.337Z,7.00
2017-08-20T10:09:22.344Z,8.10
2017-08-20T10:10:22.355Z,7.20
2017-08-20T10:11:22.364Z,6.80
2017-08-20T10:12:22.370Z,8.20
2017-08-20T10:13:22.377Z,6.50
2017-08-20T10:14:22.385Z,6.00
2017-08-20T10:15:22.396Z,5.70
2017-08-20T10:16:22.405Z,5.40
2017-08-20T10:17:22.412Z,5.20
2017-08-20T10:18:22.423Z,5.00
2017-08-20T10:19:22.432Z,6.20
2017-08-20T10:20:22.445Z,6.30
2017-08-20T10:21:22.457Z,7.50
2017-08-20T10:22:22.464Z,5.50
2017-08-20T10:23:22.478Z,5.00
2017-08-20T10:24:22.483Z,4.50
2017-08-20T10:25:22.501Z,5.10
2017-08-20T10:26:22.505Z,4.40
2017-08-20T10:27:22.517Z,4.60
2017-08-20T10:28:22.522Z,4.80
2017-08-20T10:29:22.533Z,5.00
2017-08-20T10:30:22.546Z,3.90
2017-08-20T10:31:22.554Z,3.90
2017-08-20T10:32:22.565Z,4.20
2017-08-20T10:33:22.579Z,4.40
2017-08-20T10:34:22.589Z,4.60
2017-08-20T10:35:22.603Z,4.00
2017-08-20T10:36:22.619Z,3.60
2017-08-20T10:37:22.627Z,4.10
2017-08-20T10:38:22.643Z,4.30
2017-08-20T10:39:22.653Z,4.50
2017-08-20T10:40:22.666Z,4.00
2017-08-20T10:41:22.678Z,4.30
2017-08-20T10:42:22.691Z,4.20
2017-08-20T10:43:22.704Z,3.70
2017-08-20T10:44:22.708Z,4.00
2017-08-20T10:45:22.722Z,4.20
2017-08-20T10:46:22.733Z,4.80
2017-08-20T10:47:22.746Z,4.60
2017-08-20T10:48:22.757Z,5.20
2017-08-20T10:49:22.766Z,5.10
2017-08-20T10:50:22.780Z,5.30
2017-08-20T10:51:23.090Z,4.90
2017-08-20T10:52:22.804Z,4.90
2017-08-20T10:53:22.818Z,5.00
2017-08-20T10:54:22.828Z,5.20
2017-08-20T10:55:22.841Z,4.40
2017-08-20T10:56:22.850Z,4.40
2017-08-20T10:57:22.864Z,4.20
2017-08-20T10:58:22.874Z,4.20
2017-08-20T10:59:22.889Z,4.40
2017-08-20T11:00:22.895Z,4.50
2017-08-20T11:01:22.905Z,4.80
2017-08-20T11:02:22.919Z,4.20
2017-08-20T11:03:22.930Z,4.50
2017-08-20T11:04:22.945Z,4.00
2017-08-20T11:05:22.960Z,5.30
2017-08-20T11:06:22.972Z,4.60
2017-08-20T11:07:22.983Z,5.40
2017-08-20T11:08:22.990Z,5.80
2017-08-20T11:09:23.001Z,7.60
2017-08-20T11:10:23.013Z,7.00
2017-08-20T11:11:23.022Z,6.80
2017-08-20T11:12:23.033Z,7.00
2017-08-20T11:13:23.042Z,7.50
2017-08-20T11:14:23.054Z,6.40
2017-08-20T11:15:23.062Z,7.20
2017-08-20T11:16:23.076Z,6.20
2017-08-20T11:17:23.091Z,5.80
2017-08-20T11:18:23.094Z,6.10
2017-08-20T11:19:23.107Z,5.20
2017-08-20T11:20:23.117Z,5.40
2017-08-20T11:21:23.125Z,5.10
2017-08-20T11:22:23.137Z,5.10
2017-08-20T11:23:23.148Z,5.00
2017-08-20T11:24:23.152Z,4.70
2017-08-20T11:25:23.163Z,5.40
2017-08-20T11:26:23.176Z,4.70
2017-08-20T11:27:23.188Z,4.70
2017-08-20T11:28:23.193Z,4.90
2017-08-20T11:29:23.206Z,5.10
2017-08-20T11:30:23.216Z,5.30
2017-08-20T11:31:23.233Z,5.90
2017-08-20T11:32:23.242Z,6.30
2017-08-20T11:33:23.250Z,6.80
2017-08-20T11:34:23.263Z,6.40
2017-08-20T11:35:23.271Z,6.40
2017-08-20T11:36:23.278Z,7.50
2017-08-20T11:37:23.288Z,7.10
2017-08-20T11:38:23.296Z,7.10
2017-08-20T11:39:23.306Z,7.70
2017-08-20T11:40:23.325Z,8.30
2017-08-20T11:41:23.315Z,7.40
2017-08-20T11:42:23.323Z,8.50
2017-08-20T11:43:23.330Z,8.00
2017-08-20T11:44:23.338Z,7.50
2017-08-20T11:45:23.343Z,8.70
2017-08-20T11:46:23.351Z,7.70
2017-08-20T11:47:23.356Z,8.10
2017-08-20T11:48:23.365Z,8.80
2017-08-20T11:49:23.371Z,8.10
2017-08-20T11:50:23.378Z,8.40
2017-08-20T11:51:23.385Z,10.00
2017-08-20T11:52:23.390Z,8.50
2017-08-20T11:53:23.393Z,8.30
2017-08-20T11:54:23.401Z,8.70
2017-08-20T11:55:23.403Z,9.50
2017-08-20T11:56:23.404Z,8.80
2017-08-20T11:57:23.411Z,8.80
2017-08-20T11:58:23.413Z,8.80
2017-08-20T11:59:23.421Z,9.00
2017-08-20T12:00:23.421Z,9.30
2017-08-20T12:01:23.428Z,9.30
2017-08-20T12:02:23.431Z,9.30
2017-08-20T12:03:23.441Z,9.00
2017-08-20T12:04:23.445Z,9.40
2017-08-20T12:05:23.447Z,9.30
2017-08-20T12:06:23.452Z,9.70
2017-08-20T12:07:23.459Z,9.60
2017-08-20T12:08:23.453Z,9.10
2017-08-20T12:09:23.462Z,9.40
2017-08-20T12:10:23.460Z,9.20
2017-08-20T12:11:23.468Z,9.40
2017-08-20T12:12:23.473Z,9.40
2017-08-20T12:13:23.476Z,9.90
2017-08-20T12:14:23.481Z,9.80
2017-08-20T12:15:23.483Z,10.10
2017-08-20T12:16:23.486Z,9.80
2017-08-20T12:17:23.487Z,9.80
2017-08-20T12:18:23.493Z,10.00
2017-08-20T12:19:23.494Z,10.00
2017-08-20T12:20:23.495Z,10.20
2017-08-20T12:21:23.495Z,9.70
2017-08-20T12:22:23.497Z,10.40
2017-08-20T12:23:23.504Z,10.00
2017-08-20T12:24:23.510Z,10.60
2017-08-20T12:25:23.503Z,10.20
2017-08-20T12:26:23.507Z,9.80
2017-08-20T12:27:23.507Z,10.00
2017-08-20T12:28:23.512Z,9.60
2017-08-20T12:29:23.516Z,9.30
2017-08-20T12:30:23.516Z,9.40
2017-08-20T12:31:23.527Z,10.30
2017-08-20T12:32:23.526Z,9.20
2017-08-20T12:33:23.523Z,9.50
2017-08-20T12:34:23.528Z,9.10
2017-08-20T12:35:23.527Z,9.50
2017-08-20T12:36:23.524Z,10.60
2017-08-20T12:37:23.524Z,9.90
2017-08-20T12:38:23.532Z,9.30
2017-08-20T12:39:23.527Z,9.60
2017-08-20T12:40:23.529Z,9.50
2017-08-20T12:41:23.534Z,9.20
2017-08-20T12:42:23.540Z,9.80
2017-08-20T12:43:23.537Z,9.60
2017-08-20T12:44:23.541Z,9.30
2017-08-20T12:45:23.541Z,9.30
2017-08-20T12:46:23.546Z,9.40
2017-08-20T12:47:23.547Z,9.70
2017-08-20T12:48:23.557Z,10.30
2017-08-20T12:49:23.548Z,9.70
2017-08-20T12:50:23.552Z,9.30
2017-08-20T12:51:23.551Z,9.00
2017-08-20T12:52:23.554Z,9.10
2017-08-20T12:53:23.552Z,9.10
2017-08-20T12:54:23.552Z,9.50
2017-08-20T12:55:23.559Z,9.10
2017-08-20T12:56:23.556Z,9.10
2017-08-20T12:57:23.555Z,9.40
2017-08-20T12:58:23.559Z,9.30
2017-08-20T12:59:23.560Z,9.30
2017-08-20T13:00:23.564Z,9.70
2017-08-20T13:01:23.567Z,9.60
2017-08-20T13:02:23.566Z,9.50
2017-08-20T13:03:23.569Z,9.80